Terminal Aerodrome Forecast
Issued by NWS

Home | Current Version | Previous Version | Graphics & Text | Print | Product List | Glossary On
Versions: 1 2 3 4 5 6 7 8 9 10 11 12 13 14 15
000
FTUS42 KMHX 292322
TAFISO
TAF
KISO 292322Z 3000/3024 19008KT P6SM SCT030 OVC060
      TEMPO 3000/3001 6SM -SHRA BKN015
     FM300700 19007KT 5SM BR SCT010 BKN025
     FM301500 20013G24KT P6SM BKN035
     FM302200 19012G22KT 5SM -SHRA BKN030
      AMD LTD TO VIS AND WIND=

USA.gov is the U.S. government's official web portal to all federal, state and local government web resources and services.